sensor_id;sensor_type;location;lat;lon;timestamp;P1;durP1;ratioP1;P2;durP2;ratioP2
47431;SDS011;33183;52.290;6.144;2022-07-01T00:02:24;1.35;;;0.80;;
47431;SDS011;33183;52.290;6.144;2022-07-01T00:04:50;0.98;;;0.73;;
47431;SDS011;33183;52.290;6.144;2022-07-01T00:07:15;1.88;;;0.80;;
47431;SDS011;33183;52.290;6.144;2022-07-01T00:09:41;1.95;;;1.13;;
47431;SDS011;33183;52.290;6.144;2022-07-01T00:12:06;1.23;;;0.70;;
47431;SDS011;33183;52.290;6.144;2022-07-01T00:14:32;1.50;;;0.82;;
47431;SDS011;33183;52.290;6.144;2022-07-01T00:16:57;2.00;;;0.90;;
47431;SDS011;33183;52.290;6.144;2022-07-01T00:19:23;0.90;;;0.70;;
47431;SDS011;33183;52.290;6.144;2022-07-01T00:21:49;1.30;;;0.70;;
47431;SDS011;33183;52.290;6.144;2022-07-01T00:24:15;1.13;;;0.63;;
47431;SDS011;33183;52.290;6.144;2022-07-01T00:26:40;1.20;;;0.77;;
47431;SDS011;33183;52.290;6.144;2022-07-01T00:29:05;0.80;;;0.60;;
47431;SDS011;33183;52.290;6.144;2022-07-01T00:31:30;1.70;;;0.80;;
47431;SDS011;33183;52.290;6.144;2022-07-01T00:33:56;1.73;;;0.90;;
47431;SDS011;33183;52.290;6.144;2022-07-01T00:36:21;1.30;;;0.70;;
47431;SDS011;33183;52.290;6.144;2022-07-01T00:38:46;0.88;;;0.73;;
47431;SDS011;33183;52.290;6.144;2022-07-01T00:41:12;0.90;;;0.77;;
47431;SDS011;33183;52.290;6.144;2022-07-01T00:43:37;0.95;;;0.65;;
47431;SDS011;33183;52.290;6.144;2022-07-01T00:46:04;1.20;;;0.80;;
47431;SDS011;33183;52.290;6.144;2022-07-01T00:48:30;1.02;;;0.75;;
47431;SDS011;33183;52.290;6.144;2022-07-01T00:50:57;2.58;;;1.10;;
47431;SDS011;33183;52.290;6.144;2022-07-01T00:53:22;1.70;;;0.52;;
47431;SDS011;33183;52.290;6.144;2022-07-01T00:55:48;1.13;;;0.80;;
47431;SDS011;33183;52.290;6.144;2022-07-01T00:58:14;1.45;;;0.63;;
47431;SDS011;33183;52.290;6.144;2022-07-01T01:00:39;1.10;;;0.75;;
47431;SDS011;33183;52.290;6.144;2022-07-01T01:03:05;1.27;;;0.70;;
47431;SDS011;33183;52.290;6.144;2022-07-01T01:05:32;1.30;;;0.90;;
47431;SDS011;33183;52.290;6.144;2022-07-01T01:07:58;1.45;;;1.02;;
47431;SDS011;33183;52.290;6.144;2022-07-01T01:10:24;2.13;;;1.23;;
47431;SDS011;33183;52.290;6.144;2022-07-01T01:12:50;1.33;;;1.00;;
47431;SDS011;33183;52.290;6.144;2022-07-01T01:15:18;1.83;;;1.20;;
47431;SDS011;33183;52.290;6.144;2022-07-01T01:17:44;2.33;;;1.08;;
47431;SDS011;33183;52.290;6.144;2022-07-01T01:20:18;1.33;;;1.10;;
47431;SDS011;33183;52.290;6.144;2022-07-01T01:22:44;1.33;;;1.00;;
47431;SDS011;33183;52.290;6.144;2022-07-01T01:25:10;2.72;;;1.35;;
47431;SDS011;33183;52.290;6.144;2022-07-01T01:27:35;2.13;;;1.20;;
47431;SDS011;33183;52.290;6.144;2022-07-01T01:30:02;3.28;;;1.40;;
47431;SDS011;33183;52.290;6.144;2022-07-01T01:32:30;2.10;;;1.48;;
47431;SDS011;33183;52.290;6.144;2022-07-01T01:34:55;2.03;;;1.30;;
47431;SDS011;33183;52.290;6.144;2022-07-01T01:37:20;3.67;;;1.80;;
47431;SDS011;33183;52.290;6.144;2022-07-01T01:39:45;2.15;;;1.38;;
47431;SDS011;33183;52.290;6.144;2022-07-01T01:42:11;2.10;;;1.75;;
47431;SDS011;33183;52.290;6.144;2022-07-01T01:44:36;3.63;;;1.85;;
47431;SDS011;33183;52.290;6.144;2022-07-01T01:47:02;3.88;;;2.00;;
47431;SDS011;33183;52.290;6.144;2022-07-01T01:49:27;2.35;;;1.70;;
47431;SDS011;33183;52.290;6.144;2022-07-01T01:51:52;2.30;;;1.65;;
47431;SDS011;33183;52.290;6.144;2022-07-01T01:54:18;3.03;;;1.75;;
47431;SDS011;33183;52.290;6.144;2022-07-01T01:56:43;2.53;;;1.50;;
47431;SDS011;33183;52.290;6.144;2022-07-01T01:59:08;1.75;;;1.65;;
47431;SDS011;33183;52.290;6.144;2022-07-01T02:01:34;1.90;;;1.42;;
47431;SDS011;33183;52.290;6.144;2022-07-01T02:03:59;1.95;;;1.70;;
47431;SDS011;33183;52.290;6.144;2022-07-01T02:06:24;2.63;;;1.83;;
47431;SDS011;33183;52.290;6.144;2022-07-01T02:08:50;3.67;;;1.70;;
47431;SDS011;33183;52.290;6.144;2022-07-01T02:11:15;2.35;;;1.63;;
47431;SDS011;33183;52.290;6.144;2022-07-01T02:13:40;1.77;;;1.60;;
47431;SDS011;33183;52.290;6.144;2022-07-01T02:16:06;2.75;;;1.65;;
47431;SDS011;33183;52.290;6.144;2022-07-01T02:18:31;3.10;;;1.70;;
47431;SDS011;33183;52.290;6.144;2022-07-01T02:20:57;2.10;;;1.65;;
47431;SDS011;33183;52.290;6.144;2022-07-01T02:23:23;2.03;;;1.60;;
47431;SDS011;33183;52.290;6.144;2022-07-01T02:25:48;2.22;;;1.65;;
47431;SDS011;33183;52.290;6.144;2022-07-01T02:28:14;2.00;;;1.70;;
47431;SDS011;33183;52.290;6.144;2022-07-01T02:30:39;3.50;;;1.80;;
47431;SDS011;33183;52.290;6.144;2022-07-01T02:33:05;2.05;;;1.70;;
47431;SDS011;33183;52.290;6.144;2022-07-01T02:35:35;2.25;;;1.95;;
47431;SDS011;33183;52.290;6.144;2022-07-01T02:38:02;2.95;;;1.83;;
47431;SDS011;33183;52.290;6.144;2022-07-01T02:40:31;2.88;;;2.35;;
47431;SDS011;33183;52.290;6.144;2022-07-01T02:42:58;2.78;;;2.45;;
47431;SDS011;33183;52.290;6.144;2022-07-01T02:45:24;5.60;;;2.70;;
47431;SDS011;33183;52.290;6.144;2022-07-01T02:47:50;3.45;;;2.67;;
47431;SDS011;33183;52.290;6.144;2022-07-01T02:50:15;4.30;;;2.92;;
47431;SDS011;33183;52.290;6.144;2022-07-01T02:52:43;2.88;;;2.50;;
47431;SDS011;33183;52.290;6.144;2022-07-01T02:55:09;3.45;;;2.72;;
47431;SDS011;33183;52.290;6.144;2022-07-01T02:57:35;3.45;;;2.80;;
47431;SDS011;33183;52.290;6.144;2022-07-01T03:00:01;3.58;;;2.78;;
47431;SDS011;33183;52.290;6.144;2022-07-01T03:02:30;5.88;;;3.17;;
47431;SDS011;33183;52.290;6.144;2022-07-01T03:04:56;4.55;;;3.28;;
47431;SDS011;33183;52.290;6.144;2022-07-01T03:07:21;3.60;;;2.90;;
47431;SDS011;33183;52.290;6.144;2022-07-01T03:09:46;3.30;;;2.53;;
47431;SDS011;33183;52.290;6.144;2022-07-01T03:12:12;3.80;;;3.22;;
47431;SDS011;33183;52.290;6.144;2022-07-01T03:14:53;3.88;;;3.08;;
47431;SDS011;33183;52.290;6.144;2022-07-01T03:17:19;3.92;;;3.22;;
47431;SDS011;33183;52.290;6.144;2022-07-01T03:19:45;4.50;;;3.05;;
47431;SDS011;33183;52.290;6.144;2022-07-01T03:22:11;3.50;;;3.15;;
47431;SDS011;33183;52.290;6.144;2022-07-01T03:24:36;4.07;;;3.65;;
47431;SDS011;33183;52.290;6.144;2022-07-01T03:27:01;3.58;;;3.25;;
47431;SDS011;33183;52.290;6.144;2022-07-01T03:29:26;5.10;;;3.40;;
47431;SDS011;33183;52.290;6.144;2022-07-01T03:31:52;3.45;;;3.00;;
47431;SDS011;33183;52.290;6.144;2022-07-01T03:34:17;3.00;;;2.70;;
47431;SDS011;33183;52.290;6.144;2022-07-01T03:36:42;3.83;;;3.13;;
47431;SDS011;33183;52.290;6.144;2022-07-01T03:39:07;3.92;;;3.30;;
47431;SDS011;33183;52.290;6.144;2022-07-01T03:41:33;3.65;;;3.28;;
47431;SDS011;33183;52.290;6.144;2022-07-01T03:43:58;3.72;;;3.40;;
47431;SDS011;33183;52.290;6.144;2022-07-01T03:46:23;4.05;;;3.35;;
47431;SDS011;33183;52.290;6.144;2022-07-01T03:48:48;5.03;;;4.22;;
47431;SDS011;33183;52.290;6.144;2022-07-01T03:51:14;4.38;;;3.55;;
47431;SDS011;33183;52.290;6.144;2022-07-01T03:53:39;3.50;;;3.20;;
47431;SDS011;33183;52.290;6.144;2022-07-01T03:56:23;3.60;;;3.05;;
47431;SDS011;33183;52.290;6.144;2022-07-01T03:58:48;4.50;;;3.90;;
47431;SDS011;33183;52.290;6.144;2022-07-01T04:01:13;5.07;;;3.75;;
47431;SDS011;33183;52.290;6.144;2022-07-01T04:03:39;4.43;;;3.97;;
47431;SDS011;33183;52.290;6.144;2022-07-01T04:06:05;4.80;;;3.60;;
47431;SDS011;33183;52.290;6.144;2022-07-01T04:08:30;5.35;;;4.20;;
47431;SDS011;33183;52.290;6.144;2022-07-01T04:10:56;3.88;;;3.50;;
47431;SDS011;33183;52.290;6.144;2022-07-01T04:13:22;4.68;;;3.72;;
47431;SDS011;33183;52.290;6.144;2022-07-01T04:15:47;5.35;;;3.90;;
47431;SDS011;33183;52.290;6.144;2022-07-01T04:18:12;4.40;;;4.00;;
47431;SDS011;33183;52.290;6.144;2022-07-01T04:20:38;4.40;;;4.00;;
47431;SDS011;33183;52.290;6.144;2022-07-01T04:23:03;4.68;;;3.85;;
47431;SDS011;33183;52.290;6.144;2022-07-01T04:25:28;4.80;;;4.20;;
47431;SDS011;33183;52.290;6.144;2022-07-01T04:27:55;4.85;;;3.97;;
47431;SDS011;33183;52.290;6.144;2022-07-01T04:30:21;4.78;;;4.28;;
47431;SDS011;33183;52.290;6.144;2022-07-01T04:32:46;4.63;;;4.22;;
47431;SDS011;33183;52.290;6.144;2022-07-01T04:35:12;5.53;;;4.65;;
47431;SDS011;33183;52.290;6.144;2022-07-01T04:37:39;5.10;;;4.10;;
47431;SDS011;33183;52.290;6.144;2022-07-01T04:40:05;5.28;;;4.63;;
47431;SDS011;33183;52.290;6.144;2022-07-01T04:42:31;5.30;;;4.35;;
47431;SDS011;33183;52.290;6.144;2022-07-01T04:44:56;4.95;;;4.30;;
47431;SDS011;33183;52.290;6.144;2022-07-01T04:47:21;4.63;;;4.20;;
47431;SDS011;33183;52.290;6.144;2022-07-01T04:49:48;5.60;;;4.40;;
47431;SDS011;33183;52.290;6.144;2022-07-01T04:52:13;7.25;;;4.35;;
47431;SDS011;33183;52.290;6.144;2022-07-01T04:54:38;5.18;;;4.65;;
47431;SDS011;33183;52.290;6.144;2022-07-01T04:57:04;6.20;;;4.78;;
47431;SDS011;33183;52.290;6.144;2022-07-01T04:59:29;5.38;;;4.60;;
47431;SDS011;33183;52.290;6.144;2022-07-01T05:01:54;5.75;;;4.70;;
47431;SDS011;33183;52.290;6.144;2022-07-01T05:04:20;6.43;;;5.25;;
47431;SDS011;33183;52.290;6.144;2022-07-01T05:06:45;6.30;;;5.55;;
47431;SDS011;33183;52.290;6.144;2022-07-01T05:09:11;7.32;;;5.85;;
47431;SDS011;33183;52.290;6.144;2022-07-01T05:11:36;6.03;;;5.28;;
47431;SDS011;33183;52.290;6.144;2022-07-01T05:14:03;5.82;;;4.78;;
47431;SDS011;33183;52.290;6.144;2022-07-01T05:16:29;6.30;;;5.68;;
47431;SDS011;33183;52.290;6.144;2022-07-01T05:18:54;6.78;;;6.05;;
47431;SDS011;33183;52.290;6.144;2022-07-01T05:21:38;6.70;;;6.10;;
47431;SDS011;33183;52.290;6.144;2022-07-01T05:24:22;5.63;;;5.13;;
47431;SDS011;33183;52.290;6.144;2022-07-01T05:26:48;6.68;;;6.07;;
47431;SDS011;33183;52.290;6.144;2022-07-01T05:29:14;7.30;;;6.28;;
47431;SDS011;33183;52.290;6.144;2022-07-01T05:31:40;7.43;;;5.95;;
47431;SDS011;33183;52.290;6.144;2022-07-01T05:34:06;6.53;;;5.88;;
47431;SDS011;33183;52.290;6.144;2022-07-01T05:36:32;6.22;;;5.63;;
47431;SDS011;33183;52.290;6.144;2022-07-01T05:38:57;6.85;;;6.15;;
47431;SDS011;33183;52.290;6.144;2022-07-01T05:41:22;7.28;;;6.30;;
47431;SDS011;33183;52.290;6.144;2022-07-01T05:43:48;8.18;;;6.45;;
47431;SDS011;33183;52.290;6.144;2022-07-01T05:46:13;7.03;;;6.32;;
47431;SDS011;33183;52.290;6.144;2022-07-01T05:48:38;7.25;;;6.53;;
47431;SDS011;33183;52.290;6.144;2022-07-01T05:51:03;6.90;;;6.30;;
47431;SDS011;33183;52.290;6.144;2022-07-01T05:53:29;7.10;;;6.47;;
47431;SDS011;33183;52.290;6.144;2022-07-01T05:55:54;8.10;;;7.28;;
47431;SDS011;33183;52.290;6.144;2022-07-01T05:58:19;7.63;;;6.93;;
47431;SDS011;33183;52.290;6.144;2022-07-01T06:00:45;8.35;;;7.55;;
47431;SDS011;33183;52.290;6.144;2022-07-01T06:03:10;7.53;;;6.80;;
47431;SDS011;33183;52.290;6.144;2022-07-01T06:05:36;7.93;;;6.90;;
47431;SDS011;33183;52.290;6.144;2022-07-01T06:08:02;7.55;;;6.85;;
47431;SDS011;33183;52.290;6.144;2022-07-01T06:10:28;7.53;;;6.45;;
47431;SDS011;33183;52.290;6.144;2022-07-01T06:12:53;7.88;;;7.07;;
47431;SDS011;33183;52.290;6.144;2022-07-01T06:15:18;8.48;;;7.57;;
47431;SDS011;33183;52.290;6.144;2022-07-01T06:17:44;7.43;;;6.63;;
47431;SDS011;33183;52.290;6.144;2022-07-01T06:20:09;7.70;;;6.93;;
47431;SDS011;33183;52.290;6.144;2022-07-01T06:22:35;7.60;;;6.90;;
47431;SDS011;33183;52.290;6.144;2022-07-01T06:25:00;8.38;;;7.30;;
47431;SDS011;33183;52.290;6.144;2022-07-01T06:27:26;7.85;;;7.05;;
47431;SDS011;33183;52.290;6.144;2022-07-01T06:29:52;7.82;;;7.03;;
47431;SDS011;33183;52.290;6.144;2022-07-01T06:32:18;8.23;;;6.70;;
47431;SDS011;33183;52.290;6.144;2022-07-01T06:34:43;10.85;;;7.32;;
47431;SDS011;33183;52.290;6.144;2022-07-01T06:37:08;7.97;;;6.70;;
47431;SDS011;33183;52.290;6.144;2022-07-01T06:39:34;9.20;;;8.07;;
47431;SDS011;33183;52.290;6.144;2022-07-01T06:41:59;8.07;;;7.28;;
47431;SDS011;33183;52.290;6.144;2022-07-01T06:44:25;11.38;;;8.18;;
47431;SDS011;33183;52.290;6.144;2022-07-01T06:46:50;8.05;;;6.97;;
47431;SDS011;33183;52.290;6.144;2022-07-01T06:49:16;8.30;;;6.47;;
47431;SDS011;33183;52.290;6.144;2022-07-01T06:51:42;8.13;;;7.22;;
47431;SDS011;33183;52.290;6.144;2022-07-01T06:54:07;6.90;;;6.20;;
47431;SDS011;33183;52.290;6.144;2022-07-01T06:56:33;8.75;;;7.43;;
47431;SDS011;33183;52.290;6.144;2022-07-01T06:58:58;8.80;;;6.95;;
47431;SDS011;33183;52.290;6.144;2022-07-01T07:01:24;6.97;;;6.28;;
47431;SDS011;33183;52.290;6.144;2022-07-01T07:03:49;8.50;;;7.38;;
47431;SDS011;33183;52.290;6.144;2022-07-01T07:06:15;8.30;;;6.43;;
47431;SDS011;33183;52.290;6.144;2022-07-01T07:08:40;7.53;;;6.60;;
47431;SDS011;33183;52.290;6.144;2022-07-01T07:11:05;7.68;;;6.80;;
47431;SDS011;33183;52.290;6.144;2022-07-01T07:13:33;8.07;;;6.57;;
47431;SDS011;33183;52.290;6.144;2022-07-01T07:15:59;7.82;;;7.03;;
47431;SDS011;33183;52.290;6.144;2022-07-01T07:18:24;7.88;;;7.07;;
47431;SDS011;33183;52.290;6.144;2022-07-01T07:20:49;7.72;;;6.93;;
47431;SDS011;33183;52.290;6.144;2022-07-01T07:23:14;7.57;;;6.82;;
47431;SDS011;33183;52.290;6.144;2022-07-01T07:25:40;7.47;;;6.68;;
47431;SDS011;33183;52.290;6.144;2022-07-01T07:28:05;8.40;;;7.00;;
47431;SDS011;33183;52.290;6.144;2022-07-01T07:30:30;9.70;;;7.10;;
47431;SDS011;33183;52.290;6.144;2022-07-01T07:32:56;8.13;;;7.32;;
47431;SDS011;33183;52.290;6.144;2022-07-01T07:35:21;7.68;;;6.82;;
47431;SDS011;33183;52.290;6.144;2022-07-01T07:37:46;7.65;;;6.68;;
47431;SDS011;33183;52.290;6.144;2022-07-01T07:40:12;7.15;;;6.40;;
47431;SDS011;33183;52.290;6.144;2022-07-01T07:42:40;7.23;;;6.50;;
47431;SDS011;33183;52.290;6.144;2022-07-01T07:45:06;8.77;;;7.43;;
47431;SDS011;33183;52.290;6.144;2022-07-01T07:47:32;7.18;;;6.45;;
47431;SDS011;33183;52.290;6.144;2022-07-01T07:49:58;7.72;;;6.60;;
47431;SDS011;33183;52.290;6.144;2022-07-01T07:52:24;8.30;;;6.57;;
47431;SDS011;33183;52.290;6.144;2022-07-01T07:54:49;7.38;;;6.22;;
47431;SDS011;33183;52.290;6.144;2022-07-01T07:57:14;7.53;;;6.45;;
47431;SDS011;33183;52.290;6.144;2022-07-01T07:59:40;7.57;;;6.10;;
47431;SDS011;33183;52.290;6.144;2022-07-01T08:02:05;7.65;;;6.20;;
47431;SDS011;33183;52.290;6.144;2022-07-01T08:04:30;7.00;;;6.30;;
47431;SDS011;33183;52.290;6.144;2022-07-01T08:06:55;7.75;;;5.97;;
47431;SDS011;33183;52.290;6.144;2022-07-01T08:09:21;7.95;;;6.13;;
47431;SDS011;33183;52.290;6.144;2022-07-01T08:11:46;7.53;;;6.75;;
47431;SDS011;33183;52.290;6.144;2022-07-01T08:14:12;6.97;;;6.28;;
47431;SDS011;33183;52.290;6.144;2022-07-01T08:16:37;7.07;;;6.03;;
47431;SDS011;33183;52.290;6.144;2022-07-01T08:19:02;6.85;;;5.82;;
47431;SDS011;33183;52.290;6.144;2022-07-01T08:21:28;7.55;;;6.38;;
47431;SDS011;33183;52.290;6.144;2022-07-01T08:23:54;7.72;;;5.65;;
47431;SDS011;33183;52.290;6.144;2022-07-01T08:26:19;8.63;;;5.72;;
47431;SDS011;33183;52.290;6.144;2022-07-01T08:28:45;6.63;;;5.63;;
47431;SDS011;33183;52.290;6.144;2022-07-01T08:31:10;6.53;;;5.80;;
47431;SDS011;33183;52.290;6.144;2022-07-01T08:33:35;5.72;;;5.13;;
47431;SDS011;33183;52.290;6.144;2022-07-01T08:36:02;7.53;;;5.60;;
47431;SDS011;33183;52.290;6.144;2022-07-01T08:38:29;7.55;;;5.50;;
47431;SDS011;33183;52.290;6.144;2022-07-01T08:40:54;6.35;;;5.57;;
47431;SDS011;33183;52.290;6.144;2022-07-01T08:43:19;6.53;;;4.85;;
47431;SDS011;33183;52.290;6.144;2022-07-01T08:45:45;6.20;;;5.25;;
47431;SDS011;33183;52.290;6.144;2022-07-01T08:48:10;6.85;;;4.55;;
47431;SDS011;33183;52.290;6.144;2022-07-01T08:50:36;6.22;;;4.35;;
47431;SDS011;33183;52.290;6.144;2022-07-01T08:53:03;6.75;;;5.10;;
47431;SDS011;33183;52.290;6.144;2022-07-01T08:55:29;6.32;;;4.45;;
47431;SDS011;33183;52.290;6.144;2022-07-01T08:57:54;6.07;;;4.22;;
47431;SDS011;33183;52.290;6.144;2022-07-01T09:00:20;6.55;;;4.50;;
47431;SDS011;33183;52.290;6.144;2022-07-01T09:02:49;6.15;;;4.50;;
47431;SDS011;33183;52.290;6.144;2022-07-01T09:05:14;5.47;;;3.90;;
47431;SDS011;33183;52.290;6.144;2022-07-01T09:07:39;6.72;;;4.72;;
47431;SDS011;33183;52.290;6.144;2022-07-01T09:10:14;5.28;;;4.00;;
47431;SDS011;33183;52.290;6.144;2022-07-01T09:15:19;4.30;;;3.50;;
47431;SDS011;33183;52.290;6.144;2022-07-01T09:17:45;6.90;;;3.95;;
47431;SDS011;33183;52.290;6.144;2022-07-01T09:20:22;4.03;;;3.33;;
47431;SDS011;33183;52.290;6.144;2022-07-01T09:22:58;4.72;;;3.40;;
47431;SDS011;33183;52.290;6.144;2022-07-01T09:25:36;4.55;;;3.30;;
47431;SDS011;33183;52.290;6.144;2022-07-01T09:28:05;4.65;;;2.97;;
47431;SDS011;33183;52.290;6.144;2022-07-01T09:30:32;4.57;;;3.40;;
47431;SDS011;33183;52.290;6.144;2022-07-01T09:33:04;4.38;;;2.80;;
47431;SDS011;33183;52.290;6.144;2022-07-01T09:35:31;3.40;;;3.03;;
47431;SDS011;33183;52.290;6.144;2022-07-01T09:37:57;4.40;;;2.97;;
47431;SDS011;33183;52.290;6.144;2022-07-01T09:40:22;5.43;;;2.63;;
47431;SDS011;33183;52.290;6.144;2022-07-01T09:42:47;3.97;;;2.90;;
47431;SDS011;33183;52.290;6.144;2022-07-01T09:45:13;4.72;;;2.83;;
47431;SDS011;33183;52.290;6.144;2022-07-01T09:47:41;4.40;;;2.55;;
47431;SDS011;33183;52.290;6.144;2022-07-01T09:50:10;3.65;;;2.15;;
47431;SDS011;33183;52.290;6.144;2022-07-01T09:52:35;3.45;;;2.45;;
47431;SDS011;33183;52.290;6.144;2022-07-01T09:55:01;4.47;;;2.35;;
47431;SDS011;33183;52.290;6.144;2022-07-01T09:57:26;4.50;;;2.42;;
47431;SDS011;33183;52.290;6.144;2022-07-01T09:59:52;3.75;;;2.00;;
47431;SDS011;33183;52.290;6.144;2022-07-01T10:02:18;2.72;;;1.80;;
47431;SDS011;33183;52.290;6.144;2022-07-01T10:05:04;3.45;;;2.33;;
47431;SDS011;33183;52.290;6.144;2022-07-01T10:07:42;2.65;;;1.55;;
47431;SDS011;33183;52.290;6.144;2022-07-01T10:12:53;4.72;;;1.63;;
47431;SDS011;33183;52.290;6.144;2022-07-01T10:15:20;6.90;;;1.88;;
47431;SDS011;33183;52.290;6.144;2022-07-01T10:17:48;3.30;;;1.80;;
47431;SDS011;33183;52.290;6.144;2022-07-01T10:20:15;2.83;;;1.60;;
47431;SDS011;33183;52.290;6.144;2022-07-01T10:22:42;3.17;;;1.50;;
47431;SDS011;33183;52.290;6.144;2022-07-01T10:28:11;3.78;;;1.50;;
47431;SDS011;33183;52.290;6.144;2022-07-01T10:33:29;3.05;;;1.30;;
47431;SDS011;33183;52.290;6.144;2022-07-01T10:36:08;4.22;;;1.60;;
47431;SDS011;33183;52.290;6.144;2022-07-01T10:38:35;2.35;;;1.10;;
47431;SDS011;33183;52.290;6.144;2022-07-01T10:43:57;2.95;;;1.00;;
47431;SDS011;33183;52.290;6.144;2022-07-01T10:49:15;4.22;;;1.40;;
47431;SDS011;33183;52.290;6.144;2022-07-01T10:51:51;3.22;;;1.00;;
47431;SDS011;33183;52.290;6.144;2022-07-01T10:59:42;2.35;;;1.13;;
47431;SDS011;33183;52.290;6.144;2022-07-01T11:02:11;1.83;;;1.00;;
47431;SDS011;33183;52.290;6.144;2022-07-01T11:04:37;1.05;;;0.68;;
47431;SDS011;33183;52.290;6.144;2022-07-01T11:07:03;1.83;;;1.10;;
47431;SDS011;33183;52.290;6.144;2022-07-01T11:09:28;2.63;;;1.00;;
47431;SDS011;33183;52.290;6.144;2022-07-01T11:11:54;3.05;;;0.80;;
47431;SDS011;33183;52.290;6.144;2022-07-01T11:14:19;2.47;;;0.82;;
47431;SDS011;33183;52.290;6.144;2022-07-01T11:16:44;1.88;;;0.82;;
47431;SDS011;33183;52.290;6.144;2022-07-01T11:19:09;1.98;;;0.98;;
47431;SDS011;33183;52.290;6.144;2022-07-01T11:21:35;1.85;;;1.00;;
47431;SDS011;33183;52.290;6.144;2022-07-01T11:24:00;2.97;;;0.98;;
47431;SDS011;33183;52.290;6.144;2022-07-01T11:26:25;2.03;;;0.70;;
47431;SDS011;33183;52.290;6.144;2022-07-01T11:28:50;1.70;;;0.88;;
47431;SDS011;33183;52.290;6.144;2022-07-01T11:31:26;2.20;;;0.80;;
47431;SDS011;33183;52.290;6.144;2022-07-01T11:33:52;2.50;;;0.50;;
47431;SDS011;33183;52.290;6.144;2022-07-01T11:36:17;1.30;;;0.65;;
47431;SDS011;33183;52.290;6.144;2022-07-01T11:39:01;1.73;;;0.60;;
47431;SDS011;33183;52.290;6.144;2022-07-01T11:41:45;1.33;;;0.57;;
47431;SDS011;33183;52.290;6.144;2022-07-01T11:44:10;1.85;;;0.55;;
47431;SDS011;33183;52.290;6.144;2022-07-01T11:46:35;2.50;;;0.50;;
47431;SDS011;33183;52.290;6.144;2022-07-01T11:49:01;2.08;;;0.63;;
47431;SDS011;33183;52.290;6.144;2022-07-01T11:51:36;1.58;;;0.80;;
47431;SDS011;33183;52.290;6.144;2022-07-01T11:54:01;1.38;;;0.80;;
47431;SDS011;33183;52.290;6.144;2022-07-01T11:56:30;1.83;;;1.05;;
47431;SDS011;33183;52.290;6.144;2022-07-01T11:58:57;1.08;;;0.60;;
47431;SDS011;33183;52.290;6.144;2022-07-01T12:01:24;1.80;;;0.63;;
47431;SDS011;33183;52.290;6.144;2022-07-01T12:03:51;1.23;;;0.67;;
47431;SDS011;33183;52.290;6.144;2022-07-01T12:06:17;2.47;;;0.70;;
47431;SDS011;33183;52.290;6.144;2022-07-01T12:08:44;1.40;;;0.55;;
47431;SDS011;33183;52.290;6.144;2022-07-01T12:11:11;1.50;;;0.40;;
47431;SDS011;33183;52.290;6.144;2022-07-01T12:13:36;1.02;;;0.47;;
47431;SDS011;33183;52.290;6.144;2022-07-01T12:16:09;1.58;;;0.70;;
47431;SDS011;33183;52.290;6.144;2022-07-01T12:18:34;1.60;;;0.68;;
47431;SDS011;33183;52.290;6.144;2022-07-01T12:21:00;0.68;;;0.40;;
47431;SDS011;33183;52.290;6.144;2022-07-01T12:23:25;1.88;;;0.63;;
47431;SDS011;33183;52.290;6.144;2022-07-01T12:25:51;1.42;;;0.75;;
47431;SDS011;33183;52.290;6.144;2022-07-01T12:28:33;1.40;;;0.70;;
47431;SDS011;33183;52.290;6.144;2022-07-01T12:31:04;1.10;;;0.40;;
47431;SDS011;33183;52.290;6.144;2022-07-01T12:33:31;0.65;;;0.38;;
47431;SDS011;33183;52.290;6.144;2022-07-01T12:35:57;1.55;;;0.50;;
47431;SDS011;33183;52.290;6.144;2022-07-01T12:38:25;1.63;;;0.57;;
47431;SDS011;33183;52.290;6.144;2022-07-01T12:40:51;2.45;;;0.47;;
47431;SDS011;33183;52.290;6.144;2022-07-01T12:43:23;1.50;;;0.50;;
47431;SDS011;33183;52.290;6.144;2022-07-01T12:45:49;1.58;;;0.50;;
47431;SDS011;33183;52.290;6.144;2022-07-01T12:48:14;1.17;;;0.57;;
47431;SDS011;33183;52.290;6.144;2022-07-01T12:50:40;1.75;;;0.50;;
47431;SDS011;33183;52.290;6.144;2022-07-01T12:53:09;2.13;;;0.52;;
47431;SDS011;33183;52.290;6.144;2022-07-01T12:55:36;2.08;;;0.50;;
47431;SDS011;33183;52.290;6.144;2022-07-01T12:58:10;0.73;;;0.50;;
47431;SDS011;33183;52.290;6.144;2022-07-01T13:00:37;0.82;;;0.52;;
47431;SDS011;33183;52.290;6.144;2022-07-01T13:03:03;1.45;;;0.40;;
47431;SDS011;33183;52.290;6.144;2022-07-01T13:05:30;0.85;;;0.32;;
47431;SDS011;33183;52.290;6.144;2022-07-01T13:07:56;1.77;;;0.35;;
47431;SDS011;33183;52.290;6.144;2022-07-01T13:10:21;1.10;;;0.68;;
47431;SDS011;33183;52.290;6.144;2022-07-01T13:12:47;0.40;;;0.30;;
47431;SDS011;33183;52.290;6.144;2022-07-01T13:15:14;1.23;;;0.55;;
47431;SDS011;33183;52.290;6.144;2022-07-01T13:17:40;1.35;;;0.40;;
47431;SDS011;33183;52.290;6.144;2022-07-01T13:20:06;1.25;;;0.40;;
47431;SDS011;33183;52.290;6.144;2022-07-01T13:22:31;1.80;;;0.70;;
47431;SDS011;33183;52.290;6.144;2022-07-01T13:24:57;1.42;;;0.50;;
47431;SDS011;33183;52.290;6.144;2022-07-01T13:27:22;2.35;;;0.55;;
47431;SDS011;33183;52.290;6.144;2022-07-01T13:29:48;1.50;;;0.60;;
47431;SDS011;33183;52.290;6.144;2022-07-01T13:32:14;1.33;;;0.40;;
47431;SDS011;33183;52.290;6.144;2022-07-01T13:34:39;0.95;;;0.40;;
47431;SDS011;33183;52.290;6.144;2022-07-01T13:37:05;0.85;;;0.30;;
47431;SDS011;33183;52.290;6.144;2022-07-01T13:39:30;1.65;;;0.65;;
47431;SDS011;33183;52.290;6.144;2022-07-01T13:41:55;1.35;;;0.55;;
47431;SDS011;33183;52.290;6.144;2022-07-01T13:44:21;1.17;;;0.40;;
47431;SDS011;33183;52.290;6.144;2022-07-01T13:46:46;0.70;;;0.40;;
47431;SDS011;33183;52.290;6.144;2022-07-01T13:49:12;1.17;;;0.30;;
47431;SDS011;33183;52.290;6.144;2022-07-01T13:51:37;1.05;;;0.55;;
47431;SDS011;33183;52.290;6.144;2022-07-01T13:54:03;0.68;;;0.40;;
47431;SDS011;33183;52.290;6.144;2022-07-01T13:56:28;1.45;;;0.32;;
47431;SDS011;33183;52.290;6.144;2022-07-01T13:58:53;1.40;;;0.30;;
47431;SDS011;33183;52.290;6.144;2022-07-01T14:01:19;3.15;;;0.60;;
47431;SDS011;33183;52.290;6.144;2022-07-01T14:06:13;0.80;;;0.40;;
47431;SDS011;33183;52.290;6.144;2022-07-01T14:08:38;1.70;;;0.50;;
47431;SDS011;33183;52.290;6.144;2022-07-01T14:11:03;2.08;;;0.50;;
47431;SDS011;33183;52.290;6.144;2022-07-01T14:13:29;0.88;;;0.40;;
47431;SDS011;33183;52.290;6.144;2022-07-01T14:15:54;3.88;;;1.35;;
47431;SDS011;33183;52.290;6.144;2022-07-01T14:18:19;2.10;;;0.40;;
47431;SDS011;33183;52.290;6.144;2022-07-01T14:20:45;9.65;;;0.70;;
47431;SDS011;33183;52.290;6.144;2022-07-01T14:23:10;0.90;;;0.50;;
47431;SDS011;33183;52.290;6.144;2022-07-01T14:25:35;1.13;;;0.50;;
47431;SDS011;33183;52.290;6.144;2022-07-01T14:28:01;1.63;;;0.47;;
47431;SDS011;33183;52.290;6.144;2022-07-01T14:30:26;1.85;;;0.60;;
47431;SDS011;33183;52.290;6.144;2022-07-01T14:32:51;1.58;;;0.40;;
47431;SDS011;33183;52.290;6.144;2022-07-01T14:35:16;3.28;;;0.65;;
47431;SDS011;33183;52.290;6.144;2022-07-01T14:37:42;1.00;;;0.47;;
47431;SDS011;33183;52.290;6.144;2022-07-01T14:40:08;1.52;;;0.30;;
47431;SDS011;33183;52.290;6.144;2022-07-01T14:42:37;1.77;;;0.50;;
47431;SDS011;33183;52.290;6.144;2022-07-01T14:45:02;1.80;;;0.30;;
47431;SDS011;33183;52.290;6.144;2022-07-01T14:47:28;2.42;;;0.50;;
47431;SDS011;33183;52.290;6.144;2022-07-01T14:49:54;0.77;;;0.30;;
47431;SDS011;33183;52.290;6.144;2022-07-01T14:52:20;2.40;;;0.45;;
47431;SDS011;33183;52.290;6.144;2022-07-01T14:54:47;2.22;;;0.40;;
47431;SDS011;33183;52.290;6.144;2022-07-01T14:57:14;1.48;;;0.45;;
47431;SDS011;33183;52.290;6.144;2022-07-01T14:59:40;1.83;;;0.50;;
47431;SDS011;33183;52.290;6.144;2022-07-01T15:02:05;0.98;;;0.50;;
47431;SDS011;33183;52.290;6.144;2022-07-01T15:04:30;3.97;;;0.60;;
47431;SDS011;33183;52.290;6.144;2022-07-01T15:06:56;1.42;;;0.38;;
47431;SDS011;33183;52.290;6.144;2022-07-01T15:09:22;0.32;;;0.30;;